Time;durP1;ratioP1;P1;durP2;ratioP2;P2;SDS_P1;SDS_P2;PMS_P1;PMS_P2;Temp;Humidity;BMP_temperature;BMP_pressure;BME280_temperature;BME280_humidity;BME280_pressure;Samples;Min_cycle;Max_cycle;Signal;HPM_P1;HPM_P2
2022/11/28 00:00:05;;;;;;;0.38;0.38;;;8.90;99.90;;;;;;5039215;28;20028;-93
2022/11/28 00:02:30;;;;;;;0.25;0.25;;;8.90;99.90;;;;;;5038883;28;20179;-94
2022/11/28 00:04:56;;;;;;;4.57;1.00;;;8.90;99.90;;;;;;5033303;28;20064;-89
2022/11/28 00:07:22;;;;;;;0.57;0.50;;;8.90;99.90;;;;;;5041670;28;20024;-91
2022/11/28 00:09:48;;;;;;;0.10;0.10;;;8.80;99.90;;;;;;5058304;28;20579;-92
2022/11/28 00:12:13;;;;;;;0.40;0.40;;;8.80;99.90;;;;;;5037374;28;20029;-90
2022/11/28 00:14:39;;;;;;;2.17;0.43;;;8.70;99.90;;;;;;5070879;28;20086;-91
2022/11/28 00:17:05;;;;;;;0.17;0.17;;;8.70;99.90;;;;;;5071381;28;20035;-91
2022/11/28 00:19:30;;;;;;;0.82;0.68;;;8.80;99.90;;;;;;5039533;28;20060;-91
2022/11/28 00:21:56;;;;;;;0.30;0.30;;;8.80;99.90;;;;;;5043858;28;20649;-92
2022/11/28 00:24:22;;;;;;;0.40;0.40;;;8.80;99.90;;;;;;5044427;28;20033;-90
2022/11/28 00:26:47;;;;;;;0.20;0.20;;;8.70;99.90;;;;;;5072223;28;20033;-92
2022/11/28 00:29:13;;;;;;;0.20;0.20;;;8.80;99.90;;;;;;5071963;28;20093;-91
2022/11/28 00:31:41;;;;;;;0.10;0.10;;;8.90;99.90;;;;;;5039464;28;20060;-91
2022/11/28 00:34:08;;;;;;;0.52;0.52;;;8.80;99.90;;;;;;5039485;28;20040;-92
2022/11/28 00:36:34;;;;;;;0.40;0.40;;;8.80;99.90;;;;;;5045668;28;20031;-91
2022/11/28 00:39:00;;;;;;;0.35;0.35;;;8.70;99.90;;;;;;5037482;28;20029;-89
2022/11/28 00:41:29;;;;;;;2.10;1.02;;;8.80;99.90;;;;;;5037747;28;20112;-92
2022/11/28 00:43:56;;;;;;;0.60;0.60;;;8.70;99.90;;;;;;5048397;28;20040;-90
2022/11/28 00:46:22;;;;;;;0.10;0.10;;;8.80;99.90;;;;;;5038879;28;20036;-92
2022/11/28 00:48:49;;;;;;;0.15;0.15;;;8.70;99.90;;;;;;5037937;28;20045;-92
2022/11/28 00:51:16;;;;;;;0.40;0.40;;;8.80;99.90;;;;;;5037819;28;20044;-92
2022/11/28 00:53:43;;;;;;;0.10;0.10;;;8.70;99.90;;;;;;5041218;28;20025;-92
2022/11/28 00:56:11;;;;;;;0.32;0.32;;;8.70;99.90;;;;;;5039262;28;20094;-87
2022/11/28 00:58:38;;;;;;;0.50;0.50;;;8.60;99.90;;;;;;5031404;28;20111;-86
2022/11/28 01:01:13;;;;;;;0.30;0.30;;;8.70;99.90;;;;;;5051672;28;20040;-92
2022/11/28 01:03:40;;;;;;;0.25;0.25;;;8.70;99.90;;;;;;5038454;28;20029;-91
2022/11/28 01:06:06;;;;;;;1.20;0.40;;;8.70;99.90;;;;;;5043423;28;20033;-92
2022/11/28 01:08:32;;;;;;;4.13;1.85;;;8.80;99.90;;;;;;5038632;28;20025;-88
2022/11/28 01:10:58;;;;;;;0.65;0.52;;;8.80;99.90;;;;;;5062245;28;20447;-91
2022/11/28 01:13:24;;;;;;;0.25;0.25;;;8.70;99.90;;;;;;5038514;28;20115;-92
2022/11/28 01:15:49;;;;;;;0.40;0.40;;;8.80;99.90;;;;;;5037837;28;20503;-92
2022/11/28 01:18:15;;;;;;;0.80;0.57;;;8.80;99.90;;;;;;5037335;28;20028;-91
2022/11/28 01:20:41;;;;;;;1.38;1.27;;;8.60;99.90;;;;;;5064902;28;20028;-92
2022/11/28 01:23:06;;;;;;;0.32;0.32;;;8.60;99.90;;;;;;5041786;28;20036;-92
2022/11/28 01:25:32;;;;;;;0.10;0.10;;;8.70;99.90;;;;;;5038372;28;20029;-93
2022/11/28 01:27:58;;;;;;;0.10;0.10;;;8.70;99.90;;;;;;5039910;28;20050;-91
2022/11/28 01:30:24;;;;;;;0.10;0.10;;;8.70;99.90;;;;;;5048980;28;20389;-90
2022/11/28 01:32:49;;;;;;;3.10;1.17;;;8.80;99.90;;;;;;5046775;28;20056;-89
2022/11/28 01:35:15;;;;;;;0.20;0.20;;;8.80;99.90;;;;;;5025797;28;20040;-87
2022/11/28 01:37:41;;;;;;;0.70;0.63;;;8.80;99.90;;;;;;5049453;28;20455;-88
2022/11/28 01:40:09;;;;;;;0.10;0.10;;;8.80;99.90;;;;;;5034794;28;20020;-88
2022/11/28 01:42:34;;;;;;;0.20;0.20;;;8.80;99.90;;;;;;5042587;28;20688;-90
2022/11/28 01:45:19;;;;;;;0.28;0.20;;;8.80;99.90;;;;;;5035883;28;20147;-88
2022/11/28 01:47:45;;;;;;;0.30;0.30;;;8.80;99.90;;;;;;5054292;28;20048;-91
2022/11/28 01:50:12;;;;;;;0.47;0.45;;;8.80;99.90;;;;;;5045250;28;20124;-89
2022/11/28 01:52:41;;;;;;;0.40;0.40;;;8.80;99.90;;;;;;5036016;28;20101;-90
2022/11/28 01:55:09;;;;;;;0.45;0.45;;;8.80;99.90;;;;;;5036687;28;20025;-90
2022/11/28 01:57:35;;;;;;;0.20;0.20;;;8.80;99.90;;;;;;5032612;28;20036;-89
2022/11/28 02:00:07;;;;;;;0.20;0.20;;;8.80;99.90;;;;;;5035828;28;20029;-91
2022/11/28 02:02:43;;;;;;;16.20;1.65;;;8.80;99.90;;;;;;5036699;28;20538;-88
2022/11/28 02:05:09;;;;;;;0.30;0.30;;;8.80;99.90;;;;;;5061494;28;20040;-85
2022/11/28 02:07:35;;;;;;;0.38;0.38;;;8.80;99.90;;;;;;5036221;28;20059;-86
2022/11/28 02:10:05;;;;;;;0.75;0.68;;;8.80;99.90;;;;;;5041902;28;20044;-88
2022/11/28 02:12:48;;;;;;;0.20;0.20;;;8.80;99.90;;;;;;5049040;28;20929;-86
2022/11/28 02:15:45;;;;;;;0.40;0.40;;;8.80;99.90;;;;;;5061161;28;20489;-92
2022/11/28 02:18:42;;;;;;;0.30;0.30;;;8.80;99.90;;;;;;5042327;28;20024;-87
2022/11/28 02:21:17;;;;;;;0.68;0.68;;;8.80;99.90;;;;;;5047825;28;20029;-89
2022/11/28 02:24:23;;;;;;;0.30;0.30;;;8.80;99.90;;;;;;5037877;28;20025;-87
2022/11/28 02:27:09;;;;;;;0.77;0.75;;;8.90;99.90;;;;;;5046025;28;20056;-88
2022/11/28 02:29:49;;;;;;;0.63;0.63;;;8.90;99.90;;;;;;5046719;28;20025;-87
2022/11/28 02:32:26;;;;;;;0.30;0.30;;;8.90;99.90;;;;;;5049087;28;20087;-90
2022/11/28 02:35:19;;;;;;;0.47;0.47;;;8.90;99.90;;;;;;5060509;28;20021;-87
2022/11/28 02:38:09;;;;;;;0.15;0.15;;;8.80;99.90;;;;;;5058482;28;20475;-87
2022/11/28 02:40:47;;;;;;;0.73;0.73;;;8.80;99.90;;;;;;5029783;28;20031;-86
2022/11/28 02:43:31;;;;;;;7.38;0.85;;;8.80;99.90;;;;;;5038274;28;20039;-85
2022/11/28 02:46:13;;;;;;;0.15;0.15;;;8.80;99.90;;;;;;5061434;28;20060;-85
2022/11/28 02:48:41;;;;;;;0.10;0.10;;;8.70;99.90;;;;;;5026433;28;20033;-86
2022/11/28 02:51:12;;;;;;;0.28;0.28;;;8.80;99.90;;;;;;5029647;28;20522;-87
2022/11/28 02:53:39;;;;;;;0.25;0.25;;;8.80;99.90;;;;;;5037671;28;20063;-86
2022/11/28 02:56:05;;;;;;;0.30;0.30;;;8.80;99.90;;;;;;5026825;28;20045;-86
2022/11/28 02:58:30;;;;;;;0.45;0.45;;;8.70;99.90;;;;;;5026588;28;20091;-85
2022/11/28 03:00:56;;;;;;;0.13;0.13;;;8.70;99.90;;;;;;5027081;28;20029;-86
2022/11/28 03:03:31;;;;;;;1.20;0.93;;;8.70;99.90;;;;;;5027517;28;20085;-87
2022/11/28 03:06:09;;;;;;;1.13;0.60;;;8.80;99.90;;;;;;5025845;28;20121;-86
2022/11/28 03:08:58;;;;;;;0.25;0.22;;;8.80;99.90;;;;;;5021036;28;20037;-88
2022/11/28 03:11:46;;;;;;;0.68;0.68;;;8.80;99.90;;;;;;5027304;28;20277;-88
2022/11/28 03:14:37;;;;;;;0.60;0.60;;;8.80;99.90;;;;;;5060614;28;20029;-88
2022/11/28 03:17:05;;;;;;;0.10;0.10;;;8.80;99.90;;;;;;5027895;28;20040;-87
2022/11/28 03:19:36;;;;;;;0.40;0.40;;;8.80;99.90;;;;;;5029509;28;20095;-90
2022/11/28 03:22:01;;;;;;;0.38;0.38;;;8.80;99.90;;;;;;5031912;28;20036;-89
2022/11/28 03:24:45;;;;;;;0.30;0.30;;;8.80;99.90;;;;;;5029936;28;20406;-88
2022/11/28 03:27:38;;;;;;;1.65;1.13;;;8.80;99.90;;;;;;5035969;28;20026;-91
2022/11/28 03:30:29;;;;;;;1.73;1.63;;;8.80;99.90;;;;;;5021628;28;20041;-88
2022/11/28 03:32:57;;;;;;;0.70;0.45;;;8.80;99.90;;;;;;5027039;28;20083;-85
2022/11/28 03:35:27;;;;;;;0.40;0.40;;;8.90;99.90;;;;;;5028531;28;20041;-89
2022/11/28 03:38:20;;;;;;;0.68;0.68;;;9.00;99.90;;;;;;5021622;28;20029;-89
2022/11/28 03:40:49;;;;;;;0.22;0.22;;;9.00;99.90;;;;;;5019798;28;20100;-88
2022/11/28 03:43:20;;;;;;;0.20;0.20;;;9.00;99.90;;;;;;5033461;28;20044;-88
2022/11/28 03:45:54;;;;;;;0.30;0.30;;;9.00;99.90;;;;;;5031453;28;20140;-88
2022/11/28 03:48:41;;;;;;;0.20;0.20;;;9.00;99.90;;;;;;5029880;28;20057;-87
2022/11/28 03:51:14;;;;;;;0.20;0.20;;;9.00;99.90;;;;;;5031654;28;20029;-90
2022/11/28 03:54:06;;;;;;;0.20;0.20;;;9.10;99.90;;;;;;5033503;28;20500;-88
2022/11/28 03:56:56;;;;;;;1.02;0.70;;;9.10;99.90;;;;;;5028522;28;20051;-91
2022/11/28 03:59:35;;;;;;;0.43;0.43;;;9.10;99.90;;;;;;5051292;28;20035;-90
2022/11/28 04:02:04;;;;;;;0.10;0.10;;;9.10;99.90;;;;;;5034151;28;20505;-90
2022/11/28 04:04:56;;;;;;;0.30;0.30;;;9.20;99.90;;;;;;5050135;28;20045;-88
2022/11/28 04:08:00;;;;;;;0.30;0.30;;;9.20;99.90;;;;;;5045720;28;20029;-90
2022/11/28 04:10:34;;;;;;;0.10;0.10;;;9.20;99.90;;;;;;5032318;28;20034;-89
2022/11/28 04:13:29;;;;;;;0.10;0.10;;;9.20;99.90;;;;;;5024710;28;20067;-91
2022/11/28 04:16:09;;;;;;;0.10;0.10;;;9.20;99.90;;;;;;5032013;28;20053;-88
2022/11/28 04:18:41;;;;;;;1.45;0.65;;;9.20;99.90;;;;;;5034554;28;20037;-89
2022/11/28 04:21:46;;;;;;;0.55;0.55;;;9.20;99.90;;;;;;5067070;28;20033;-89
2022/11/28 04:24:17;;;;;;;0.10;0.10;;;9.20;99.90;;;;;;5009871;28;20046;-89
2022/11/28 04:26:58;;;;;;;0.35;0.35;;;9.20;99.90;;;;;;5031020;28;20036;-87
2022/11/28 04:29:26;;;;;;;0.50;0.50;;;9.20;99.90;;;;;;5024021;28;20501;-86
2022/11/28 04:31:56;;;;;;;0.30;0.30;;;9.20;99.90;;;;;;5030964;28;20496;-87
2022/11/28 04:34:24;;;;;;;0.10;0.10;;;9.20;99.90;;;;;;5033896;28;20378;-87
2022/11/28 04:36:52;;;;;;;0.30;0.30;;;9.20;99.90;;;;;;5032668;28;20038;-88
2022/11/28 04:39:22;;;;;;;0.10;0.10;;;9.10;99.90;;;;;;5041738;28;20029;-88
2022/11/28 04:42:01;;;;;;;0.55;0.35;;;9.20;99.90;;;;;;5036987;28;20057;-91
2022/11/28 04:44:45;;;;;;;0.10;0.10;;;9.20;99.90;;;;;;5047230;28;20487;-91
2022/11/28 04:47:11;;;;;;;0.32;0.32;;;9.20;99.90;;;;;;5035653;28;20033;-92
2022/11/28 04:49:37;;;;;;;0.23;0.17;;;9.20;99.90;;;;;;5036111;28;20017;-93
2022/11/28 04:52:23;;;;;;;0.10;0.10;;;9.20;99.90;;;;;;5041359;28;20512;-94
2022/11/28 04:54:52;;;;;;;0.10;0.10;;;9.30;99.90;;;;;;5062889;28;20034;-95
2022/11/28 04:57:40;;;;;;;0.10;0.10;;;9.30;99.90;;;;;;5034962;28;20091;-93
2022/11/28 05:00:12;;;;;;;0.32;0.30;;;9.20;99.90;;;;;;5028732;28;20022;-94
2022/11/28 05:02:41;;;;;;;0.13;0.13;;;9.20;99.90;;;;;;5035288;28;20021;-93
2022/11/28 05:05:17;;;;;;;2.08;0.35;;;9.20;99.90;;;;;;5032763;28;20036;-94
2022/11/28 05:07:43;;;;;;;0.22;0.22;;;9.20;99.90;;;;;;5036722;28;20029;-95
2022/11/28 05:10:10;;;;;;;0.20;0.20;;;9.20;99.90;;;;;;5037383;28;20175;-94
2022/11/28 05:12:37;;;;;;;0.20;0.20;;;9.20;99.90;;;;;;5038451;28;20029;-89
2022/11/28 05:15:03;;;;;;;0.17;0.17;;;9.20;99.90;;;;;;5036790;28;20153;-93
2022/11/28 05:17:29;;;;;;;0.13;0.13;;;9.20;99.90;;;;;;5034729;28;20029;-92
2022/11/28 05:19:54;;;;;;;0.10;0.10;;;9.30;99.90;;;;;;5035117;28;20790;-93
2022/11/28 05:22:20;;;;;;;1.08;0.30;;;9.20;99.90;;;;;;5034538;28;20060;-92
2022/11/28 05:24:46;;;;;;;0.10;0.10;;;9.20;99.90;;;;;;5035443;28;20030;-91
2022/11/28 05:27:11;;;;;;;0.20;0.20;;;9.10;99.90;;;;;;5034760;28;20034;-93
2022/11/28 05:29:42;;;;;;;0.40;0.40;;;9.20;99.90;;;;;;5031025;28;20033;-87
2022/11/28 05:32:10;;;;;;;0.10;0.10;;;9.20;99.90;;;;;;5028501;28;20493;-87
2022/11/28 05:34:36;;;;;;;0.10;0.10;;;9.10;99.90;;;;;;5061552;28;20028;-88
2022/11/28 05:37:02;;;;;;;0.30;0.30;;;9.20;99.90;;;;;;5030818;28;20685;-88
2022/11/28 05:39:28;;;;;;;0.22;0.22;;;9.20;99.90;;;;;;5027769;28;20140;-86
2022/11/28 05:41:54;;;;;;;0.10;0.10;;;9.20;99.90;;;;;;5039457;28;20099;-84
2022/11/28 05:44:20;;;;;;;0.20;0.20;;;9.20;99.90;;;;;;5030062;28;20464;-87
2022/11/28 05:46:46;;;;;;;0.10;0.10;;;9.20;99.90;;;;;;5028777;28;20092;-92
2022/11/28 05:49:12;;;;;;;0.20;0.20;;;9.20;99.90;;;;;;5035527;28;20102;-88
2022/11/28 05:51:38;;;;;;;0.10;0.10;;;9.20;99.90;;;;;;5034082;28;20037;-87
2022/11/28 05:54:04;;;;;;;0.20;0.20;;;9.20;99.90;;;;;;5030195;28;20084;-89
2022/11/28 05:56:30;;;;;;;1.60;1.05;;;9.20;99.90;;;;;;5030589;28;20081;-90
2022/11/28 05:58:55;;;;;;;0.10;0.10;;;9.20;99.90;;;;;;5031701;28;20133;-88
2022/11/28 06:01:24;;;;;;;0.20;0.20;;;9.20;99.90;;;;;;5030844;28;20083;-86
2022/11/28 06:03:57;;;;;;;0.28;0.28;;;9.20;99.90;;;;;;5032711;28;20504;-89
2022/11/28 06:06:23;;;;;;;0.30;0.30;;;9.20;99.90;;;;;;5025371;28;20064;-84
2022/11/28 06:08:51;;;;;;;0.22;0.22;;;9.10;99.90;;;;;;5028099;28;20033;-82
2022/11/28 06:11:17;;;;;;;0.10;0.10;;;9.10;99.90;;;;;;5023928;28;20033;-85
2022/11/28 06:13:43;;;;;;;0.20;0.20;;;9.10;99.90;;;;;;5025474;28;20041;-84
2022/11/28 06:16:12;;;;;;;0.95;0.88;;;9.10;99.90;;;;;;5025516;28;20033;-87
2022/11/28 06:18:39;;;;;;;0.10;0.10;;;9.20;99.90;;;;;;5019371;28;20124;-80
2022/11/28 06:21:06;;;;;;;0.28;0.28;;;9.20;99.90;;;;;;5022878;28;20026;-81
2022/11/28 06:23:32;;;;;;;0.20;0.20;;;9.10;99.90;;;;;;5027326;28;20033;-80
2022/11/28 06:26:02;;;;;;;0.10;0.10;;;9.10;99.90;;;;;;5026029;28;20059;-80
2022/11/28 06:28:28;;;;;;;0.10;0.10;;;9.10;99.90;;;;;;5024995;28;20655;-83
2022/11/28 06:30:53;;;;;;;1.05;1.00;;;9.10;99.90;;;;;;5027145;28;20143;-85
2022/11/28 06:33:19;;;;;;;17.45;8.07;;;9.10;99.90;;;;;;5026228;28;20154;-92
2022/11/28 06:35:45;;;;;;;5.90;3.90;;;9.20;99.90;;;;;;5027468;28;20601;-90
2022/11/28 06:38:10;;;;;;;9.45;4.18;;;9.20;99.90;;;;;;5029255;28;20033;-92
2022/11/28 06:40:38;;;;;;;3.38;2.83;;;9.10;99.90;;;;;;5027550;28;20049;-88
2022/11/28 06:43:05;;;;;;;3.80;1.30;;;9.10;99.90;;;;;;5023733;28;20135;-86
2022/11/28 06:45:32;;;;;;;4.30;2.30;;;9.10;99.90;;;;;;5024048;28;20033;-87
2022/11/28 06:47:58;;;;;;;7.70;1.30;;;9.10;99.90;;;;;;5026849;28;20029;-85
2022/11/28 06:50:24;;;;;;;0.25;0.25;;;9.10;99.90;;;;;;5025606;28;20104;-84
2022/11/28 06:52:50;;;;;;;0.43;0.43;;;9.10;99.90;;;;;;5026928;28;20068;-89
2022/11/28 06:55:16;;;;;;;0.32;0.32;;;9.10;99.90;;;;;;5031073;28;20088;-90
2022/11/28 06:57:42;;;;;;;0.55;0.55;;;9.00;99.90;;;;;;5049864;28;20021;-89
2022/11/28 07:00:09;;;;;;;0.73;0.63;;;9.00;99.90;;;;;;5053559;28;20035;-89
2022/11/28 07:02:34;;;;;;;0.22;0.22;;;9.10;99.90;;;;;;5066826;28;20055;-89
2022/11/28 07:05:00;;;;;;;0.93;0.68;;;9.10;99.90;;;;;;5044046;28;20033;-89
2022/11/28 07:07:26;;;;;;;0.60;0.60;;;9.10;99.90;;;;;;5052382;28;20025;-92
2022/11/28 07:09:51;;;;;;;0.22;0.22;;;9.00;99.90;;;;;;5034695;28;20098;-90
2022/11/28 07:12:17;;;;;;;0.10;0.10;;;9.00;99.90;;;;;;5063524;28;20033;-89
2022/11/28 07:14:43;;;;;;;0.20;0.20;;;9.10;99.90;;;;;;5056007;28;20041;-92
2022/11/28 07:17:08;;;;;;;0.10;0.10;;;9.20;99.90;;;;;;5043059;28;20036;-88
2022/11/28 07:19:34;;;;;;;0.13;0.13;;;9.10;99.90;;;;;;5044967;28;20025;-89
2022/11/28 07:22:00;;;;;;;1.95;1.38;;;9.00;99.90;;;;;;5052484;28;20055;-91
2022/11/28 07:24:26;;;;;;;0.20;0.20;;;9.00;99.90;;;;;;5041127;28;20246;-87
2022/11/28 07:26:52;;;;;;;0.20;0.20;;;9.00;99.90;;;;;;5030882;28;20029;-86
2022/11/28 07:29:18;;;;;;;1.63;1.52;;;9.10;99.90;;;;;;5029752;28;20033;-86
2022/11/28 07:31:44;;;;;;;0.22;0.22;;;9.10;99.90;;;;;;5046530;28;20020;-86
2022/11/28 07:34:10;;;;;;;0.10;0.10;;;9.10;99.90;;;;;;5046616;28;20037;-84
2022/11/28 07:36:37;;;;;;;2.80;0.98;;;9.20;99.90;;;;;;5028137;28;20459;-85
2022/11/28 07:39:04;;;;;;;0.38;0.38;;;9.20;99.90;;;;;;5035060;28;20044;-91
2022/11/28 07:41:30;;;;;;;7.20;5.03;;;9.20;99.90;;;;;;5038318;28;20032;-91
2022/11/28 07:44:00;;;;;;;10.50;3.45;;;9.20;99.90;;;;;;5037447;28;20123;-91
2022/11/28 07:46:28;;;;;;;6.82;3.03;;;9.20;99.90;;;;;;5037762;28;20039;-86
2022/11/28 07:48:54;;;;;;;4.75;3.47;;;9.20;99.90;;;;;;5029941;28;20147;-92
2022/11/28 07:51:24;;;;;;;2.17;1.65;;;9.20;99.90;;;;;;5049429;28;20060;-92
2022/11/28 07:53:50;;;;;;;0.57;0.57;;;9.20;99.90;;;;;;5044238;28;20028;-92
2022/11/28 07:56:20;;;;;;;0.40;0.40;;;9.20;99.90;;;;;;5034508;28;20049;-91
2022/11/28 07:58:47;;;;;;;0.73;0.73;;;9.30;99.90;;;;;;5034526;28;20033;-92
2022/11/28 08:01:14;;;;;;;;;;;9.30;99.90;;;;;;5052207;28;20029;-92
2022/11/28 08:03:39;;;;;;;0.20;0.20;;;9.40;99.90;;;;;;5033534;28;19905;-92
2022/11/28 08:06:07;;;;;;;0.10;0.10;;;9.40;99.90;;;;;;5033415;28;20124;-92
2022/11/28 08:08:32;;;;;;;;;;;9.50;99.90;;;;;;5032130;28;20029;-92
2022/11/28 08:11:00;;;;;;;0.10;0.10;;;9.50;99.90;;;;;;5034356;28;20360;-91
2022/11/28 08:13:26;;;;;;;1.08;1.05;;;9.50;99.90;;;;;;5034086;28;20041;-91
2022/11/28 08:15:52;;;;;;;0.57;0.57;;;9.60;99.90;;;;;;5062921;28;20401;-90
2022/11/28 08:18:18;;;;;;;0.45;0.45;;;9.60;99.90;;;;;;5052395;28;20041;-92
2022/11/28 08:20:44;;;;;;;0.13;0.13;;;9.60;99.90;;;;;;5070933;28;20028;-90
2022/11/28 08:23:09;;;;;;;1.15;0.90;;;9.60;99.90;;;;;;5034860;28;20033;-92
2022/11/28 08:25:35;;;;;;;0.50;0.50;;;9.60;99.90;;;;;;5034335;28;20029;-91
2022/11/28 08:28:01;;;;;;;1.13;1.10;;;9.60;99.90;;;;;;5052176;28;20028;-91
2022/11/28 08:30:27;;;;;;;1.05;1.00;;;9.70;99.90;;;;;;5036809;28;20962;-90
2022/11/28 08:32:52;;;;;;;3.65;1.50;;;9.70;99.90;;;;;;5036315;28;20381;-90
2022/11/28 08:35:18;;;;;;;0.95;0.95;;;9.70;99.90;;;;;;5054407;28;20031;-92
2022/11/28 08:37:44;;;;;;;0.32;0.32;;;9.60;99.90;;;;;;5036510;28;20029;-92
2022/11/28 08:40:10;;;;;;;0.50;0.50;;;9.80;99.90;;;;;;5034922;28;20024;-90
2022/11/28 08:42:36;;;;;;;1.23;1.13;;;9.70;99.90;;;;;;5035434;28;20033;-90
2022/11/28 08:45:02;;;;;;;0.60;0.57;;;9.70;99.90;;;;;;5036257;28;20044;-90
2022/11/28 08:47:28;;;;;;;0.40;0.40;;;9.70;99.90;;;;;;5035459;28;20057;-89
2022/11/28 08:49:53;;;;;;;1.98;1.88;;;9.70;99.90;;;;;;5035672;28;20063;-90
2022/11/28 08:52:19;;;;;;;0.40;0.40;;;9.70;99.90;;;;;;5034939;28;20075;-90
2022/11/28 08:54:45;;;;;;;0.10;0.10;;;9.70;99.90;;;;;;5027866;28;20103;-90
2022/11/28 08:57:10;;;;;;;0.50;0.50;;;9.70;99.90;;;;;;5038675;28;20080;-89
2022/11/28 08:59:36;;;;;;;0.38;0.38;;;9.70;99.90;;;;;;5033758;28;20033;-91
2022/11/28 09:02:02;;;;;;;1.73;1.45;;;9.70;99.90;;;;;;5040914;28;20029;-90
2022/11/28 09:04:28;;;;;;;0.30;0.30;;;9.80;99.90;;;;;;5036975;28;20021;-88
2022/11/28 09:06:53;;;;;;;0.77;0.77;;;9.90;99.90;;;;;;5051856;28;20097;-89
2022/11/28 09:09:19;;;;;;;0.55;0.55;;;10.00;99.90;;;;;;5051365;28;20032;-89
2022/11/28 09:11:46;;;;;;;0.88;0.88;;;10.10;99.90;;;;;;5073061;28;20056;-91
2022/11/28 09:14:12;;;;;;;0.35;0.35;;;10.10;99.90;;;;;;5052243;28;20025;-89
2022/11/28 09:16:40;;;;;;;4.07;1.02;;;10.10;99.90;;;;;;5037824;28;20025;-91
2022/11/28 09:19:08;;;;;;;1.40;1.30;;;10.00;99.90;;;;;;5033999;28;20511;-88
2022/11/28 09:21:34;;;;;;;1.30;1.20;;;10.10;99.90;;;;;;5033037;28;20040;-89
2022/11/28 09:23:59;;;;;;;6.47;2.75;;;10.20;99.90;;;;;;5032382;28;20036;-88
2022/11/28 09:26:25;;;;;;;2.35;1.48;;;10.20;99.90;;;;;;5032785;28;20048;-89
2022/11/28 09:28:52;;;;;;;0.80;0.80;;;10.10;99.90;;;;;;5032727;28;20460;-89
2022/11/28 09:31:19;;;;;;;1.27;1.08;;;10.20;99.90;;;;;;5031683;28;20044;-90
2022/11/28 09:33:45;;;;;;;;;;;10.40;99.90;;;;;;5049975;28;20056;-90
2022/11/28 09:36:16;;;;;;;0.28;0.28;;;10.30;99.90;;;;;;5029652;28;19979;-88
2022/11/28 09:38:42;;;;;;;3.40;0.93;;;10.30;99.90;;;;;;5049423;28;20044;-89
2022/11/28 09:41:27;;;;;;;7.05;2.28;;;10.40;99.90;;;;;;5033069;28;20025;-89
2022/11/28 09:43:57;;;;;;;0.32;0.32;;;10.50;99.90;;;;;;5039617;28;20126;-88
2022/11/28 09:46:28;;;;;;;1.27;0.95;;;10.40;99.90;;;;;;5031587;28;20484;-88
2022/11/28 09:48:59;;;;;;;0.13;0.13;;;10.50;99.90;;;;;;5022866;28;20078;-88
2022/11/28 09:51:35;;;;;;;0.45;0.43;;;10.50;99.90;;;;;;5048931;28;20028;-88
2022/11/28 09:54:18;;;;;;;1.00;1.00;;;10.50;99.90;;;;;;5031095;28;20744;-88
2022/11/28 09:56:48;;;;;;;2.42;1.17;;;10.60;99.90;;;;;;5049028;28;20160;-87
2022/11/28 09:59:25;;;;;;;0.10;0.10;;;10.60;99.90;;;;;;5049084;28;20033;-88
2022/11/28 10:02:27;;;;;;;0.55;0.55;;;10.40;99.90;;;;;;5046074;28;20025;-88
2022/11/28 10:05:37;;;;;;;1.35;0.77;;;10.40;99.90;;;;;;5056520;28;20058;-88
2022/11/28 10:08:11;;;;;;;0.10;0.10;;;10.30;99.90;;;;;;4994746;28;20054;-88
2022/11/28 10:11:03;;;;;;;4.28;0.45;;;10.40;99.90;;;;;;4996760;28;20081;-88
2022/11/28 10:14:10;;;;;;;0.80;0.80;;;10.50;99.90;;;;;;5035267;28;20111;-88
2022/11/28 10:16:55;;;;;;;0.57;0.57;;;10.70;99.90;;;;;;5046922;28;20098;-87
2022/11/28 10:19:39;;;;;;;20.83;0.95;;;11.20;99.90;;;;;;5053725;28;20025;-87
2022/11/28 10:22:12;;;;;;;1.98;1.77;;;11.20;99.90;;;;;;5030192;28;20021;-88
2022/11/28 10:24:43;;;;;;;2.40;1.00;;;11.40;99.90;;;;;;5048220;28;20029;-86
2022/11/28 10:27:12;;;;;;;0.28;0.20;;;11.50;99.90;;;;;;5030121;28;20087;-88
2022/11/28 10:29:49;;;;;;;0.10;0.10;;;11.60;99.90;;;;;;5029603;28;20058;-85
2022/11/28 10:32:19;;;;;;;0.55;0.40;;;11.30;99.90;;;;;;5047917;28;20053;-88
2022/11/28 10:35:04;;;;;;;1.52;1.42;;;11.00;99.90;;;;;;5047127;28;20033;-87
2022/11/28 10:37:33;;;;;;;0.47;0.47;;;11.00;99.90;;;;;;5053219;28;20774;-86
2022/11/28 10:40:27;;;;;;;5.68;1.55;;;11.10;99.90;;;;;;5047180;28;20031;-87
2022/11/28 10:43:05;;;;;;;0.30;0.30;;;11.00;99.90;;;;;;5047841;28;20029;-87
2022/11/28 10:45:37;;;;;;;0.10;0.10;;;10.80;99.90;;;;;;5047684;28;20039;-87
2022/11/28 10:48:32;;;;;;;1.25;0.75;;;10.80;99.90;;;;;;5047092;28;20036;-87
2022/11/28 10:51:32;;;;;;;0.43;0.43;;;10.80;99.90;;;;;;5043444;28;20131;-87
2022/11/28 10:54:21;;;;;;;0.95;0.40;;;10.90;99.90;;;;;;5047968;28;20029;-86
2022/11/28 10:56:55;;;;;;;10.02;2.35;;;10.80;99.90;;;;;;5031888;28;20095;-86
2022/11/28 10:59:46;;;;;;;3.70;0.65;;;10.90;99.90;;;;;;5052303;28;20042;-87
2022/11/28 11:02:21;;;;;;;0.80;0.77;;;11.00;99.90;;;;;;5038969;28;20041;-87
2022/11/28 11:04:47;;;;;;;0.17;0.17;;;10.80;99.90;;;;;;5046580;28;20108;-85
2022/11/28 11:07:18;;;;;;;0.40;0.40;;;10.90;99.90;;;;;;5047291;28;20059;-87
2022/11/28 11:09:44;;;;;;;1.05;0.95;;;11.10;99.90;;;;;;5034977;28;20035;-87
2022/11/28 11:12:31;;;;;;;2.40;1.50;;;11.10;99.90;;;;;;5029445;28;20025;-88
2022/11/28 11:14:57;;;;;;;0.32;0.32;;;10.80;99.90;;;;;;5031453;28;20029;-87
2022/11/28 11:17:34;;;;;;;1.95;0.47;;;10.60;99.90;;;;;;5048364;28;20492;-87
2022/11/28 11:20:00;;;;;;;0.10;0.10;;;10.70;99.90;;;;;;5051345;28;20089;-86
2022/11/28 11:22:30;;;;;;;1.98;1.17;;;10.70;99.90;;;;;;5046364;28;20539;-87
2022/11/28 11:25:03;;;;;;;1.75;0.80;;;10.70;99.90;;;;;;5042867;28;20021;-86
2022/11/28 11:27:30;;;;;;;0.20;0.20;;;10.90;99.90;;;;;;5029087;28;20029;-86
2022/11/28 11:29:55;;;;;;;0.20;0.20;;;11.10;99.90;;;;;;5047344;28;20036;-87
2022/11/28 11:32:29;;;;;;;1.25;1.15;;;11.40;99.90;;;;;;5047037;28;20033;-87
2022/11/28 11:34:57;;;;;;;0.00;0.00;;;11.30;99.90;;;;;;5062189;28;20060;-86
2022/11/28 11:37:36;;;;;;;1.75;0.88;;;11.20;99.90;;;;;;5047072;28;20029;-86
2022/11/28 11:40:19;;;;;;;0.17;0.17;;;11.20;99.90;;;;;;5027870;28;20075;-86
2022/11/28 11:43:00;;;;;;;0.30;0.30;;;11.30;99.90;;;;;;5028568;28;20041;-86
2022/11/28 11:45:33;;;;;;;0.05;0.05;;;11.20;99.90;;;;;;5045920;28;20500;-85
2022/11/28 11:48:00;;;;;;;0.43;0.43;;;11.10;99.90;;;;;;5046763;28;20025;-86
2022/11/28 11:50:30;;;;;;;0.32;0.32;;;11.30;99.90;;;;;;5059662;28;20036;-86
2022/11/28 11:53:09;;;;;;;1.85;1.00;;;11.50;99.90;;;;;;5026769;28;20610;-86
2022/11/28 11:56:04;;;;;;;5.85;1.42;;;11.40;99.90;;;;;;5044378;28;20036;-86
2022/11/28 11:58:58;;;;;;;0.10;0.10;;;11.50;99.90;;;;;;5015882;28;20037;-86
2022/11/28 12:01:25;;;;;;;0.10;0.10;;;11.40;99.90;;;;;;5042112;28;20041;-86
2022/11/28 12:04:06;;;;;;;0.00;0.00;;;11.30;99.90;;;;;;5047090;28;20029;-86
2022/11/28 12:06:39;;;;;;;1.65;0.25;;;11.30;99.90;;;;;;5032011;28;20041;-86
2022/11/28 12:09:26;;;;;;;1.98;1.20;;;11.30;99.90;;;;;;5050834;28;20100;-86
2022/11/28 12:12:00;;;;;;;0.50;0.50;;;11.30;99.90;;;;;;5050442;28;20465;-87
2022/11/28 12:14:27;;;;;;;0.40;0.40;;;11.50;99.90;;;;;;5050422;28;20110;-87
2022/11/28 12:16:59;;;;;;;;;;;11.50;99.90;;;;;;5036490;28;20032;-87
2022/11/28 12:19:53;;;;;;;0.52;0.38;;;11.60;99.90;;;;;;5033532;28;19909;-86
2022/11/28 12:22:45;;;;;;;2.80;1.05;;;11.50;99.90;;;;;;5043744;28;20559;-86
2022/11/28 12:25:31;;;;;;;0.10;0.10;;;11.50;99.90;;;;;;5048309;28;20071;-87
2022/11/28 12:28:09;;;;;;;0.40;0.40;;;11.40;99.90;;;;;;5050445;28;20028;-86
2022/11/28 12:30:52;;;;;;;0.63;0.63;;;11.60;99.90;;;;;;5050577;28;20057;-86
2022/11/28 12:33:38;;;;;;;0.10;0.10;;;11.80;99.90;;;;;;5049010;28;20028;-88
2022/11/28 12:36:33;;;;;;;2.83;1.10;;;11.70;99.90;;;;;;5031721;28;20039;-88
2022/11/28 12:39:11;;;;;;;0.13;0.13;;;11.60;99.90;;;;;;5049206;28;20548;-87
2022/11/28 12:41:57;;;;;;;0.85;0.85;;;11.80;99.90;;;;;;5049887;28;20029;-86
2022/11/28 12:44:28;;;;;;;0.90;0.90;;;11.60;99.90;;;;;;5049611;28;20072;-87
2022/11/28 12:47:09;;;;;;;0.10;0.10;;;11.40;99.90;;;;;;5048045;28;20067;-87
2022/11/28 12:49:43;;;;;;;0.10;0.10;;;11.80;99.90;;;;;;5049551;28;20036;-86
2022/11/28 12:52:18;;;;;;;3.42;0.52;;;11.90;99.90;;;;;;5042363;28;20033;-87
2022/11/28 12:55:06;;;;;;;0.20;0.20;;;11.60;99.90;;;;;;5053235;28;20152;-86
2022/11/28 12:57:43;;;;;;;1.13;0.45;;;11.40;99.90;;;;;;5047012;28;20052;-87
2022/11/28 13:00:09;;;;;;;0.22;0.22;;;11.40;99.90;;;;;;5048544;28;20800;-86
2022/11/28 13:02:49;;;;;;;0.20;0.20;;;11.60;99.90;;;;;;5054526;28;20136;-86
2022/11/28 13:05:24;;;;;;;0.10;0.10;;;12.00;99.90;;;;;;5031021;28;20052;-87
2022/11/28 13:08:18;;;;;;;0.10;0.10;;;12.20;99.90;;;;;;5049578;28;20021;-86
2022/11/28 13:11:17;;;;;;;0.10;0.10;;;12.70;99.90;;;;;;5049080;28;20074;-87
2022/11/28 13:13:53;;;;;;;0.28;0.28;;;12.70;99.90;;;;;;5027742;28;20598;-86
2022/11/28 13:16:25;;;;;;;0.38;0.38;;;12.50;99.90;;;;;;5049282;28;20579;-87
2022/11/28 13:19:03;;;;;;;0.38;0.38;;;12.50;99.90;;;;;;5031360;28;20121;-86
2022/11/28 13:21:31;;;;;;;0.35;0.35;;;12.40;99.90;;;;;;5048408;28;20053;-86